createdAt,value
2022-12-28T00:02:14.708Z,3.41
2022-12-28T00:04:42.538Z,3.42
2022-12-28T00:07:10.474Z,3.45
2022-12-28T00:09:38.347Z,3.47
2022-12-28T00:12:08.706Z,3.49
2022-12-28T00:14:36.663Z,3.50
2022-12-28T00:17:04.748Z,3.49
2022-12-28T00:19:32.714Z,3.51
2022-12-28T00:22:00.657Z,3.51
2022-12-28T00:24:28.645Z,3.51
2022-12-28T00:26:57.148Z,3.50
2022-12-28T00:29:26.334Z,3.48
2022-12-28T00:31:54.259Z,3.48
2022-12-28T00:34:25.046Z,3.45
2022-12-28T00:37:08.300Z,3.45
2022-12-28T00:39:41.413Z,3.44
2022-12-28T00:42:09.561Z,3.39
2022-12-28T00:44:40.267Z,3.38
2022-12-28T00:47:08.927Z,3.37
2022-12-28T00:49:36.950Z,3.37
2022-12-28T00:52:05.208Z,3.38
2022-12-28T00:54:35.412Z,3.39
2022-12-28T00:57:03.852Z,3.40
2022-12-28T00:59:32.563Z,3.39
2022-12-28T01:02:02.259Z,3.41
2022-12-28T01:04:30.243Z,3.43
2022-12-28T01:06:58.157Z,3.44
2022-12-28T01:09:26.392Z,3.44
2022-12-28T01:11:55.885Z,3.44
2022-12-28T01:14:24.110Z,3.47
2022-12-28T01:16:52.284Z,3.49
2022-12-28T01:19:23.825Z,3.52
2022-12-28T01:21:53.043Z,3.52
2022-12-28T01:24:21.197Z,3.53
2022-12-28T01:26:49.130Z,3.54
2022-12-28T01:29:18.680Z,3.53
2022-12-28T01:31:46.670Z,3.51
2022-12-28T01:34:14.817Z,3.51
2022-12-28T01:36:44.134Z,3.53
2022-12-28T01:39:12.568Z,3.57
2022-12-28T01:41:42.744Z,3.58
2022-12-28T01:44:43.453Z,3.60
2022-12-28T01:47:15.484Z,3.63
2022-12-28T01:49:51.329Z,3.64
2022-12-28T01:52:25.491Z,3.64
2022-12-28T01:55:21.890Z,3.64
2022-12-28T01:57:56.642Z,3.65
2022-12-28T02:00:24.617Z,3.64
2022-12-28T02:02:56.497Z,3.64
2022-12-28T02:05:28.192Z,3.63
2022-12-28T02:08:03.446Z,3.61
2022-12-28T02:10:40.500Z,3.63
2022-12-28T02:13:13.656Z,3.65
2022-12-28T02:15:41.700Z,3.67
2022-12-28T02:18:10.880Z,3.68
2022-12-28T02:20:51.474Z,3.68
2022-12-28T02:23:32.427Z,3.69
2022-12-28T02:26:30.743Z,3.68
2022-12-28T02:29:43.632Z,3.68
2022-12-28T02:32:18.885Z,3.70
2022-12-28T02:34:52.812Z,3.70
2022-12-28T02:37:28.482Z,3.69
2022-12-28T02:40:00.013Z,3.71
2022-12-28T02:42:30.160Z,3.77
2022-12-28T02:45:16.657Z,3.81
2022-12-28T02:48:03.082Z,3.84
2022-12-28T02:50:45.483Z,3.85
2022-12-28T02:53:43.106Z,3.87
2022-12-28T02:56:24.429Z,3.88
2022-12-28T02:59:21.845Z,3.94
2022-12-28T03:02:13.440Z,4.02
2022-12-28T03:04:56.421Z,4.09
2022-12-28T03:07:46.149Z,4.16
2022-12-28T03:10:18.600Z,4.22
2022-12-28T03:12:52.448Z,4.25
2022-12-28T03:15:34.536Z,4.26
2022-12-28T03:18:26.338Z,4.29
2022-12-28T03:21:14.125Z,4.35
2022-12-28T03:24:02.418Z,4.40
2022-12-28T03:26:52.452Z,4.42
2022-12-28T03:29:41.630Z,4.41
2022-12-28T03:32:10.551Z,4.40
2022-12-28T03:34:40.060Z,4.37
2022-12-28T03:37:15.855Z,4.32
2022-12-28T03:39:51.907Z,4.30
2022-12-28T03:42:46.055Z,4.29
2022-12-28T03:45:46.613Z,4.28
2022-12-28T03:48:10.474Z,4.26
2022-12-28T03:50:43.736Z,4.27
2022-12-28T03:53:12.141Z,4.29
2022-12-28T03:55:40.972Z,4.29
2022-12-28T03:58:09.088Z,4.30
2022-12-28T04:00:38.766Z,4.32
2022-12-28T04:03:08.829Z,4.33
2022-12-28T04:05:36.789Z,4.35
2022-12-28T04:08:06.159Z,4.38
2022-12-28T04:10:35.079Z,4.39
2022-12-28T04:13:03.004Z,4.42
2022-12-28T04:15:42.924Z,4.43
2022-12-28T04:18:11.220Z,4.46
2022-12-28T04:20:40.262Z,4.48
2022-12-28T04:23:09.483Z,4.49
2022-12-28T04:25:37.376Z,4.49
2022-12-28T04:28:05.292Z,4.50
2022-12-28T04:31:00.439Z,4.50
2022-12-28T04:33:29.438Z,4.50
2022-12-28T04:36:06.758Z,4.53
2022-12-28T04:38:37.065Z,4.55
2022-12-28T04:41:06.802Z,4.58
2022-12-28T04:43:35.018Z,4.60
2022-12-28T04:46:05.697Z,4.63
2022-12-28T04:48:33.748Z,4.68
2022-12-28T04:51:07.678Z,4.71
2022-12-28T04:53:39.142Z,4.72
2022-12-28T04:59:01.911Z,4.80
2022-12-28T05:01:29.930Z,4.82
2022-12-28T05:03:58.527Z,4.84
2022-12-28T05:06:29.492Z,4.84
2022-12-28T05:08:59.270Z,4.86
2022-12-28T05:11:30.276Z,4.86
2022-12-28T05:13:58.406Z,4.87
2022-12-28T05:16:28.011Z,4.89
2022-12-28T05:18:56.706Z,4.90
2022-12-28T05:21:26.291Z,4.93
2022-12-28T05:24:21.450Z,4.96
2022-12-28T05:26:49.241Z,4.99
2022-12-28T05:29:17.035Z,5.01
2022-12-28T05:31:44.885Z,5.01
2022-12-28T05:34:12.777Z,5.01
2022-12-28T05:36:41.477Z,5.03
2022-12-28T05:39:09.580Z,5.03
2022-12-28T05:41:38.995Z,5.04
2022-12-28T05:44:07.285Z,5.04
2022-12-28T05:46:36.550Z,5.07
2022-12-28T05:49:04.611Z,5.08
2022-12-28T05:51:33.960Z,5.10
2022-12-28T05:54:04.360Z,5.13
2022-12-28T05:56:32.775Z,5.14
2022-12-28T05:59:04.284Z,5.16
2022-12-28T06:01:33.938Z,5.18
2022-12-28T06:04:04.280Z,5.21
2022-12-28T06:06:33.703Z,5.22
2022-12-28T06:09:01.808Z,5.24
2022-12-28T06:11:30.536Z,5.24
2022-12-28T06:13:59.619Z,5.26
2022-12-28T06:16:30.384Z,5.26
2022-12-28T06:18:58.772Z,5.27
2022-12-28T06:21:28.364Z,5.27
2022-12-28T06:23:57.742Z,5.30
2022-12-28T06:26:26.754Z,5.30
2022-12-28T06:28:54.588Z,5.30
2022-12-28T06:31:24.370Z,5.33
2022-12-28T06:33:56.189Z,5.32
2022-12-28T06:36:26.939Z,5.33
2022-12-28T06:38:57.328Z,5.34
2022-12-28T06:41:26.879Z,5.34
2022-12-28T06:43:55.332Z,5.34
2022-12-28T06:46:24.877Z,5.35
2022-12-28T06:48:54.159Z,5.36
2022-12-28T06:51:24.190Z,5.37
2022-12-28T06:53:53.425Z,5.37
2022-12-28T06:56:22.803Z,5.37
2022-12-28T06:58:54.446Z,5.38
2022-12-28T07:01:28.395Z,5.37
2022-12-28T07:03:59.190Z,5.39
2022-12-28T07:06:29.281Z,5.40
2022-12-28T07:09:00.865Z,5.42
2022-12-28T07:11:29.401Z,5.43
2022-12-28T07:13:57.400Z,5.44
2022-12-28T07:16:26.674Z,5.45
2022-12-28T07:18:54.869Z,5.46
2022-12-28T07:21:25.791Z,5.48
2022-12-28T07:23:55.170Z,5.49
2022-12-28T07:26:25.492Z,5.51
2022-12-28T07:28:54.919Z,5.54
2022-12-28T07:31:26.335Z,5.54
2022-12-28T07:33:55.919Z,5.57
2022-12-28T07:36:26.538Z,5.62
2022-12-28T07:38:54.507Z,5.64
2022-12-28T07:41:24.473Z,5.65
2022-12-28T07:43:52.611Z,5.68
2022-12-28T07:46:22.687Z,5.71
2022-12-28T07:48:51.517Z,5.71
2022-12-28T07:51:21.490Z,5.74
2022-12-28T07:53:52.493Z,5.76
2022-12-28T07:56:21.883Z,5.77
2022-12-28T08:01:20.246Z,5.79
2022-12-28T08:03:48.509Z,5.80
2022-12-28T08:06:19.915Z,5.82
2022-12-28T08:08:51.401Z,5.82
2022-12-28T08:11:21.637Z,5.83
2022-12-28T08:13:51.917Z,5.85
2022-12-28T08:16:21.298Z,5.86
2022-12-28T08:18:50.040Z,5.87
2022-12-28T08:21:19.864Z,5.86
2022-12-28T08:23:48.341Z,5.88
2022-12-28T08:26:20.192Z,5.89
2022-12-28T08:28:49.588Z,5.91
2022-12-28T08:31:21.552Z,5.91
2022-12-28T08:33:49.822Z,5.95
2022-12-28T08:36:18.064Z,6.00
2022-12-28T08:38:46.984Z,6.03
2022-12-28T08:41:17.936Z,6.07
2022-12-28T08:43:46.813Z,6.10
2022-12-28T08:46:17.416Z,6.14
2022-12-28T08:48:47.151Z,6.17
2022-12-28T08:51:17.116Z,6.19
2022-12-28T08:53:45.572Z,6.22
2022-12-28T08:56:15.875Z,6.24
2022-12-28T08:58:46.106Z,6.26
2022-12-28T09:01:15.937Z,6.29
2022-12-28T09:03:46.242Z,6.31
2022-12-28T09:06:18.086Z,6.34
2022-12-28T09:09:04.498Z,6.38
2022-12-28T09:11:34.537Z,6.40
2022-12-28T09:14:05.129Z,6.41
2022-12-28T09:16:33.555Z,6.42
2022-12-28T09:19:02.854Z,6.42
2022-12-28T09:21:33.056Z,6.41
2022-12-28T09:24:01.262Z,6.42
2022-12-28T09:26:31.095Z,6.37
2022-12-28T09:29:00.898Z,6.35
2022-12-28T09:31:32.124Z,6.34
2022-12-28T09:36:49.437Z,6.37
2022-12-28T09:39:19.464Z,6.42
2022-12-28T09:41:52.038Z,6.43
2022-12-28T09:47:39.865Z,6.50
2022-12-28T09:50:28.473Z,6.54
2022-12-28T09:53:12.558Z,6.57
2022-12-28T09:55:42.615Z,6.62
2022-12-28T09:58:16.048Z,6.65
2022-12-28T10:00:46.961Z,6.66
2022-12-28T10:03:20.228Z,6.69
2022-12-28T10:05:49.302Z,6.71
2022-12-28T10:08:20.185Z,6.74
2022-12-28T10:10:49.420Z,6.75
2022-12-28T10:13:52.945Z,6.76
2022-12-28T10:16:16.936Z,6.78
2022-12-28T10:18:46.796Z,6.79
2022-12-28T10:21:15.999Z,6.82
2022-12-28T10:24:20.798Z,6.85
2022-12-28T10:26:34.640Z,6.88
2022-12-28T10:29:02.451Z,6.90
2022-12-28T10:31:35.560Z,6.93
2022-12-28T10:34:15.561Z,6.98
2022-12-28T10:36:46.272Z,7.01
2022-12-28T10:39:19.750Z,7.01
2022-12-28T10:41:49.568Z,7.02
2022-12-28T10:44:39.346Z,7.04
2022-12-28T10:47:18.871Z,7.07
2022-12-28T10:52:40.534Z,7.11
2022-12-28T10:55:27.850Z,7.15
2022-12-28T10:58:27.940Z,7.17
2022-12-28T11:00:48.689Z,7.20
2022-12-28T11:03:24.750Z,7.24
2022-12-28T11:06:09.393Z,7.29
2022-12-28T11:08:37.542Z,7.33
2022-12-28T11:11:05.745Z,7.36
2022-12-28T11:13:33.956Z,7.40
2022-12-28T11:16:01.907Z,7.44
2022-12-28T11:18:36.214Z,7.45
2022-12-28T11:21:12.471Z,7.46
2022-12-28T11:23:40.640Z,7.47
2022-12-28T11:26:12.303Z,7.47
2022-12-28T11:28:41.851Z,7.49
2022-12-28T11:31:17.381Z,7.48
2022-12-28T11:33:54.021Z,7.48
2022-12-28T11:36:26.690Z,7.51
2022-12-28T11:38:56.343Z,7.53
2022-12-28T11:42:02.851Z,7.57
2022-12-28T11:44:53.113Z,7.65
2022-12-28T11:47:36.610Z,7.67
2022-12-28T11:50:42.528Z,7.73
2022-12-28T11:53:53.992Z,7.75
2022-12-28T11:56:22.788Z,7.73
2022-12-28T11:59:21.757Z,7.75
2022-12-28T12:01:57.933Z,7.75
2022-12-28T12:04:32.013Z,7.73
2022-12-28T12:07:31.900Z,7.70
2022-12-28T12:10:36.011Z,7.67
2022-12-28T12:13:38.917Z,7.66
2022-12-28T12:16:18.279Z,7.67
2022-12-28T12:18:49.496Z,7.67
2022-12-28T12:21:30.289Z,7.68
2022-12-28T12:24:05.998Z,7.67
2022-12-28T12:26:38.494Z,7.68
2022-12-28T12:29:14.962Z,7.67
2022-12-28T12:31:48.470Z,7.68
2022-12-28T12:34:29.128Z,7.69
2022-12-28T12:37:22.154Z,7.69
2022-12-28T12:40:05.586Z,7.69
2022-12-28T12:42:44.573Z,7.69
2022-12-28T12:45:26.606Z,7.70
2022-12-28T12:48:17.443Z,7.71
2022-12-28T12:50:59.610Z,7.69
2022-12-28T12:53:46.470Z,7.70
2022-12-28T12:56:30.572Z,7.69
2022-12-28T12:59:15.604Z,7.68
2022-12-28T13:01:54.411Z,7.68
2022-12-28T13:04:25.178Z,7.69
2022-12-28T13:06:58.256Z,7.69
2022-12-28T13:09:29.771Z,7.70
2022-12-28T13:11:58.517Z,7.71
2022-12-28T13:14:26.613Z,7.73
2022-12-28T13:16:57.749Z,7.73
2022-12-28T13:19:27.247Z,7.75
2022-12-28T13:21:55.638Z,7.77
2022-12-28T13:24:25.263Z,7.78
2022-12-28T13:26:54.137Z,7.80
2022-12-28T13:29:24.146Z,7.83
2022-12-28T13:31:52.591Z,7.87
2022-12-28T13:34:25.244Z,7.88
2022-12-28T13:36:56.476Z,7.88
2022-12-28T13:39:25.614Z,7.88
2022-12-28T13:41:56.077Z,7.88
2022-12-28T13:44:40.837Z,7.88
2022-12-28T13:47:16.130Z,7.88
2022-12-28T13:49:50.602Z,7.88
2022-12-28T13:52:23.245Z,7.89
2022-12-28T13:54:54.255Z,7.88
2022-12-28T14:00:17.013Z,7.88
2022-12-28T14:02:45.178Z,7.86
2022-12-28T14:05:20.108Z,7.86
2022-12-28T14:07:49.254Z,7.84
2022-12-28T14:10:18.691Z,7.82
2022-12-28T14:12:47.648Z,7.83
2022-12-28T14:15:17.052Z,7.82
2022-12-28T14:17:47.330Z,7.81
2022-12-28T14:20:15.726Z,7.80
2022-12-28T14:22:45.507Z,7.80
2022-12-28T14:25:15.254Z,7.80
2022-12-28T14:27:45.826Z,7.80
2022-12-28T14:30:24.945Z,7.80
2022-12-28T14:32:55.034Z,7.82
2022-12-28T14:35:25.742Z,7.83
2022-12-28T14:37:57.288Z,7.83
2022-12-28T14:40:32.014Z,7.84
2022-12-28T14:43:10.737Z,7.84
2022-12-28T14:46:07.271Z,7.82
2022-12-28T14:48:36.408Z,7.81
2022-12-28T14:51:05.065Z,7.83
2022-12-28T14:53:34.563Z,7.81
2022-12-28T14:56:07.187Z,7.80
2022-12-28T14:58:40.327Z,7.80
2022-12-28T15:01:10.449Z,7.79
2022-12-28T15:03:53.159Z,7.79
2022-12-28T15:06:21.904Z,7.78
2022-12-28T15:08:51.847Z,7.78
2022-12-28T15:11:21.535Z,7.76
2022-12-28T15:13:51.585Z,7.72
2022-12-28T15:16:22.862Z,7.68
2022-12-28T15:18:53.732Z,7.62
2022-12-28T15:21:23.966Z,7.60
2022-12-28T15:24:00.054Z,7.53
2022-12-28T15:26:28.675Z,7.50
2022-12-28T15:28:56.474Z,7.46
2022-12-28T15:31:24.367Z,7.43
2022-12-28T15:33:52.455Z,7.41
2022-12-28T15:36:21.855Z,7.37
2022-12-28T15:38:50.970Z,7.34
2022-12-28T15:41:37.876Z,7.29
2022-12-28T15:44:06.315Z,7.23
2022-12-28T15:46:34.652Z,7.17
2022-12-28T15:49:03.404Z,7.11
2022-12-28T15:51:31.190Z,7.07
2022-12-28T15:53:59.055Z,7.06
2022-12-28T15:56:30.504Z,7.04
2022-12-28T15:59:00.525Z,7.00
2022-12-28T16:01:30.190Z,6.96
2022-12-28T16:04:00.002Z,6.95
2022-12-28T16:06:29.492Z,6.95
2022-12-28T16:08:59.283Z,6.96
2022-12-28T16:11:30.392Z,6.97
2022-12-28T16:14:00.413Z,6.96
2022-12-28T16:16:30.514Z,6.98
2022-12-28T16:18:59.415Z,6.98
2022-12-28T16:21:28.222Z,6.97
2022-12-28T16:23:56.950Z,6.98
2022-12-28T16:26:24.768Z,6.99
2022-12-28T16:28:53.955Z,7.01
2022-12-28T16:31:23.724Z,7.03
2022-12-28T16:33:55.477Z,7.06
2022-12-28T16:36:24.163Z,7.08
2022-12-28T16:38:52.306Z,7.12
2022-12-28T16:41:20.376Z,7.15
2022-12-28T16:43:49.333Z,7.16
2022-12-28T16:46:19.336Z,7.18
2022-12-28T16:48:47.245Z,7.19
2022-12-28T16:51:15.453Z,7.20
2022-12-28T16:53:43.358Z,7.20
2022-12-28T16:56:11.918Z,7.18
2022-12-28T16:58:39.865Z,7.17
2022-12-28T17:01:10.145Z,7.16
2022-12-28T17:03:40.102Z,7.14
2022-12-28T17:06:08.981Z,7.11
2022-12-28T17:08:37.909Z,7.10
2022-12-28T17:11:09.704Z,7.08
2022-12-28T17:13:37.778Z,7.07
2022-12-28T17:16:06.720Z,7.06
2022-12-28T17:18:34.674Z,7.07
2022-12-28T17:21:07.245Z,7.09
2022-12-28T17:23:35.349Z,7.10
2022-12-28T17:26:03.207Z,7.10
2022-12-28T17:28:31.042Z,7.13
2022-12-28T17:31:07.907Z,7.14
2022-12-28T17:33:39.794Z,7.15
2022-12-28T17:36:09.926Z,7.15
2022-12-28T17:38:37.905Z,7.15
2022-12-28T17:41:10.549Z,7.15
2022-12-28T17:43:38.193Z,7.16
2022-12-28T17:46:07.046Z,7.16
2022-12-28T17:48:34.978Z,7.17
2022-12-28T17:51:10.781Z,7.19
2022-12-28T17:53:41.283Z,7.20
2022-12-28T17:56:15.847Z,7.20
2022-12-28T17:58:45.505Z,7.21
2022-12-28T18:01:14.121Z,7.21
2022-12-28T18:03:43.119Z,7.24
2022-12-28T18:06:11.053Z,7.24
2022-12-28T18:08:40.389Z,7.26
2022-12-28T18:11:11.345Z,7.26
2022-12-28T18:13:39.590Z,7.26
2022-12-28T18:16:09.770Z,7.26
2022-12-28T18:18:37.800Z,7.25
2022-12-28T18:21:08.889Z,7.25
2022-12-28T18:23:36.930Z,7.24
2022-12-28T18:26:07.935Z,7.25
2022-12-28T18:29:01.510Z,7.23
2022-12-28T18:31:30.043Z,7.24
2022-12-28T18:33:58.570Z,7.25
2022-12-28T18:36:26.493Z,7.25
2022-12-28T18:38:54.416Z,7.25
2022-12-28T18:41:27.710Z,7.25
2022-12-28T18:44:01.055Z,7.25
2022-12-28T18:46:29.133Z,7.25
2022-12-28T18:48:57.279Z,7.26
2022-12-28T18:51:25.836Z,7.29
2022-12-28T18:53:53.760Z,7.30
2022-12-28T18:56:23.724Z,7.34
2022-12-28T18:58:53.760Z,7.37
2022-12-28T19:04:12.811Z,7.40
2022-12-28T19:06:41.120Z,7.41
2022-12-28T19:09:10.394Z,7.42
2022-12-28T19:11:40.408Z,7.43
2022-12-28T19:14:11.259Z,7.46
2022-12-28T19:16:39.625Z,7.52
2022-12-28T19:19:07.681Z,7.53
2022-12-28T19:21:36.903Z,7.56
2022-12-28T19:24:06.859Z,7.63
2022-12-28T19:26:36.236Z,7.66
2022-12-28T19:29:06.072Z,7.68
2022-12-28T19:31:35.695Z,7.72
2022-12-28T19:34:03.671Z,7.78
2022-12-28T19:36:31.627Z,7.81
2022-12-28T19:39:00.113Z,7.85
2022-12-28T19:41:27.947Z,7.89
2022-12-28T19:44:23.105Z,7.90
2022-12-28T19:46:53.903Z,7.92
2022-12-28T19:49:22.155Z,7.94
2022-12-28T19:51:49.974Z,7.98
2022-12-28T19:54:17.844Z,8.04
2022-12-28T19:56:45.816Z,8.07
2022-12-28T19:59:13.733Z,8.10
2022-12-28T20:01:43.076Z,8.13
2022-12-28T20:04:14.010Z,8.14
2022-12-28T20:06:44.188Z,8.14
2022-12-28T20:09:13.222Z,8.15
2022-12-28T20:11:41.799Z,8.15
2022-12-28T20:14:13.092Z,8.15
2022-12-28T20:16:44.255Z,8.20
2022-12-28T20:19:13.350Z,8.23
2022-12-28T20:21:42.362Z,8.25
2022-12-28T20:24:12.525Z,8.25
2022-12-28T20:26:40.445Z,8.23
2022-12-28T20:29:08.371Z,8.23
2022-12-28T20:31:36.554Z,8.26
2022-12-28T20:34:05.750Z,8.27
2022-12-28T20:36:34.172Z,8.27
2022-12-28T20:39:02.452Z,8.27
2022-12-28T20:41:49.116Z,8.28
2022-12-28T20:44:22.107Z,8.30
2022-12-28T20:46:50.055Z,8.38
2022-12-28T20:49:19.454Z,8.40
2022-12-28T20:51:47.799Z,8.44
2022-12-28T20:54:15.918Z,8.45
2022-12-28T20:56:46.842Z,8.46
2022-12-28T20:59:19.955Z,8.47
2022-12-28T21:01:47.854Z,8.50
2022-12-28T21:04:16.016Z,8.51
2022-12-28T21:06:45.906Z,8.51
2022-12-28T21:09:13.941Z,8.52
2022-12-28T21:11:41.787Z,8.56
2022-12-28T21:14:09.697Z,8.60
2022-12-28T21:16:37.888Z,8.62
2022-12-28T21:19:05.804Z,8.63
2022-12-28T21:21:33.702Z,8.63
2022-12-28T21:24:04.111Z,8.62
2022-12-28T21:26:31.934Z,8.60
2022-12-28T21:29:00.428Z,8.55
2022-12-28T21:31:28.415Z,8.47
2022-12-28T21:33:59.941Z,8.39
2022-12-28T21:36:28.229Z,8.31
2022-12-28T21:38:56.022Z,8.23
2022-12-28T21:41:39.228Z,8.15
2022-12-28T21:44:08.407Z,8.08
2022-12-28T21:46:36.332Z,8.03
2022-12-28T21:49:04.519Z,8.01
2022-12-28T21:51:35.059Z,7.99
2022-12-28T21:54:04.652Z,7.99
2022-12-28T21:56:35.217Z,8.02
2022-12-28T21:59:03.192Z,8.06
2022-12-28T22:01:48.883Z,8.12
2022-12-28T22:04:37.351Z,8.15
2022-12-28T22:07:06.782Z,8.15
2022-12-28T22:09:53.567Z,8.13
2022-12-28T22:12:35.946Z,8.09
2022-12-28T22:15:25.582Z,8.07
2022-12-28T22:17:55.863Z,8.06
2022-12-28T22:20:24.653Z,8.06
2022-12-28T22:22:55.461Z,8.08
2022-12-28T22:25:24.144Z,8.12
2022-12-28T22:27:53.310Z,8.16
2022-12-28T22:30:21.254Z,8.20
2022-12-28T22:32:49.376Z,8.22
2022-12-28T22:35:18.039Z,8.27
2022-12-28T22:37:45.988Z,8.35
2022-12-28T22:40:14.327Z,8.41
2022-12-28T22:42:43.359Z,8.46
2022-12-28T22:45:14.047Z,8.50
2022-12-28T22:47:42.729Z,8.52
2022-12-28T22:50:13.111Z,8.59
2022-12-28T22:52:41.155Z,8.62
2022-12-28T22:55:10.085Z,8.67
2022-12-28T22:57:38.246Z,8.69
2022-12-28T23:00:08.463Z,8.69
2022-12-28T23:09:29.094Z,8.74
2022-12-28T23:11:56.984Z,8.76
2022-12-28T23:14:43.930Z,8.76
2022-12-28T23:17:13.845Z,8.75
2022-12-28T23:20:00.532Z,8.76
2022-12-28T23:22:49.375Z,8.74
2022-12-28T23:25:37.067Z,8.73
2022-12-28T23:28:07.563Z,8.74
2022-12-28T23:30:36.911Z,8.76
2022-12-28T23:33:04.809Z,8.75
2022-12-28T23:35:32.996Z,8.71
2022-12-28T23:38:02.251Z,8.72
2022-12-28T23:40:30.160Z,8.72
2022-12-28T23:42:58.024Z,8.73
2022-12-28T23:45:25.967Z,8.73
2022-12-28T23:50:46.669Z,8.70
2022-12-28T23:53:15.905Z,8.71
2022-12-28T23:55:43.739Z,8.73
2022-12-28T23:58:12.601Z,8.74
